sensor_id;sensor_type;location;lat;lon;timestamp;P1;durP1;ratioP1;P2;durP2;ratioP2
56830;SDS011;42713;42.676;23.352;2023-06-10T00:00:11;12.57;;;6.50;;
56830;SDS011;42713;42.676;23.352;2023-06-10T00:02:39;13.15;;;5.90;;
56830;SDS011;42713;42.676;23.352;2023-06-10T00:05:05;12.90;;;6.28;;
56830;SDS011;42713;42.676;23.352;2023-06-10T00:07:33;11.73;;;5.75;;
56830;SDS011;42713;42.676;23.352;2023-06-10T00:09:59;11.73;;;5.53;;
56830;SDS011;42713;42.676;23.352;2023-06-10T00:12:25;11.82;;;5.70;;
56830;SDS011;42713;42.676;23.352;2023-06-10T00:14:50;11.13;;;5.45;;
56830;SDS011;42713;42.676;23.352;2023-06-10T00:17:18;10.73;;;6.10;;
56830;SDS011;42713;42.676;23.352;2023-06-10T00:19:44;11.30;;;6.00;;
56830;SDS011;42713;42.676;23.352;2023-06-10T00:22:12;14.32;;;6.43;;
56830;SDS011;42713;42.676;23.352;2023-06-10T00:24:37;13.13;;;6.18;;
56830;SDS011;42713;42.676;23.352;2023-06-10T00:27:04;15.30;;;6.18;;
56830;SDS011;42713;42.676;23.352;2023-06-10T00:29:32;13.25;;;6.00;;
56830;SDS011;42713;42.676;23.352;2023-06-10T00:31:57;11.43;;;5.97;;
56830;SDS011;42713;42.676;23.352;2023-06-10T00:34:23;12.88;;;6.10;;
56830;SDS011;42713;42.676;23.352;2023-06-10T00:36:49;12.32;;;5.88;;
56830;SDS011;42713;42.676;23.352;2023-06-10T00:39:15;13.70;;;6.03;;
56830;SDS011;42713;42.676;23.352;2023-06-10T00:41:41;13.15;;;6.00;;
56830;SDS011;42713;42.676;23.352;2023-06-10T00:44:07;14.85;;;6.43;;
56830;SDS011;42713;42.676;23.352;2023-06-10T00:46:33;12.23;;;6.20;;
56830;SDS011;42713;42.676;23.352;2023-06-10T00:48:59;10.82;;;6.05;;
56830;SDS011;42713;42.676;23.352;2023-06-10T00:51:25;13.88;;;6.72;;
56830;SDS011;42713;42.676;23.352;2023-06-10T00:53:52;12.00;;;6.47;;
56830;SDS011;42713;42.676;23.352;2023-06-10T00:56:18;10.75;;;6.50;;
56830;SDS011;42713;42.676;23.352;2023-06-10T00:58:43;15.02;;;6.72;;
56830;SDS011;42713;42.676;23.352;2023-06-10T01:01:09;12.27;;;6.57;;
56830;SDS011;42713;42.676;23.352;2023-06-10T01:03:37;13.27;;;7.00;;
56830;SDS011;42713;42.676;23.352;2023-06-10T01:11:34;12.00;;;7.75;;
56830;SDS011;42713;42.676;23.352;2023-06-10T01:14:09;12.05;;;8.10;;
56830;SDS011;42713;42.676;23.352;2023-06-10T01:16:35;15.40;;;7.95;;
56830;SDS011;42713;42.676;23.352;2023-06-10T01:19:02;11.77;;;7.95;;
56830;SDS011;42713;42.676;23.352;2023-06-10T01:21:28;14.25;;;8.38;;
56830;SDS011;42713;42.676;23.352;2023-06-10T01:23:53;13.25;;;7.18;;
56830;SDS011;42713;42.676;23.352;2023-06-10T01:26:22;11.75;;;7.35;;
56830;SDS011;42713;42.676;23.352;2023-06-10T01:34:19;12.00;;;6.65;;
56830;SDS011;42713;42.676;23.352;2023-06-10T01:36:48;14.38;;;6.90;;
56830;SDS011;42713;42.676;23.352;2023-06-10T01:39:15;12.38;;;6.47;;
56830;SDS011;42713;42.676;23.352;2023-06-10T01:41:42;13.93;;;6.53;;
56830;SDS011;42713;42.676;23.352;2023-06-10T01:44:09;12.85;;;6.60;;
56830;SDS011;42713;42.676;23.352;2023-06-10T01:46:35;10.60;;;6.32;;
56830;SDS011;42713;42.676;23.352;2023-06-10T01:49:01;16.58;;;7.25;;
56830;SDS011;42713;42.676;23.352;2023-06-10T01:51:27;14.93;;;7.53;;
56830;SDS011;42713;42.676;23.352;2023-06-10T01:53:53;12.27;;;7.30;;
56830;SDS011;42713;42.676;23.352;2023-06-10T01:56:19;14.20;;;6.97;;
56830;SDS011;42713;42.676;23.352;2023-06-10T01:58:45;14.38;;;6.50;;
56830;SDS011;42713;42.676;23.352;2023-06-10T02:01:11;11.55;;;7.13;;
56830;SDS011;42713;42.676;23.352;2023-06-10T02:03:36;12.13;;;7.43;;
56830;SDS011;42713;42.676;23.352;2023-06-10T02:06:02;11.40;;;7.22;;
56830;SDS011;42713;42.676;23.352;2023-06-10T02:08:28;12.75;;;7.63;;
56830;SDS011;42713;42.676;23.352;2023-06-10T02:10:53;12.38;;;7.07;;
56830;SDS011;42713;42.676;23.352;2023-06-10T02:13:19;16.40;;;7.88;;
56830;SDS011;42713;42.676;23.352;2023-06-10T02:15:44;14.77;;;7.70;;
56830;SDS011;42713;42.676;23.352;2023-06-10T02:18:10;14.98;;;7.35;;
56830;SDS011;42713;42.676;23.352;2023-06-10T02:20:37;11.13;;;7.57;;
56830;SDS011;42713;42.676;23.352;2023-06-10T02:23:05;13.13;;;7.25;;
56830;SDS011;42713;42.676;23.352;2023-06-10T02:25:31;13.98;;;7.80;;
56830;SDS011;42713;42.676;23.352;2023-06-10T02:27:56;15.27;;;7.30;;
56830;SDS011;42713;42.676;23.352;2023-06-10T02:30:22;12.43;;;7.25;;
56830;SDS011;42713;42.676;23.352;2023-06-10T02:32:47;11.73;;;6.85;;
56830;SDS011;42713;42.676;23.352;2023-06-10T02:35:14;11.63;;;7.00;;
56830;SDS011;42713;42.676;23.352;2023-06-10T02:37:40;11.43;;;6.88;;
56830;SDS011;42713;42.676;23.352;2023-06-10T02:40:07;13.90;;;7.03;;
56830;SDS011;42713;42.676;23.352;2023-06-10T02:42:33;11.48;;;6.45;;
56830;SDS011;42713;42.676;23.352;2023-06-10T02:44:59;15.13;;;7.30;;
56830;SDS011;42713;42.676;23.352;2023-06-10T02:47:25;14.60;;;7.93;;
56830;SDS011;42713;42.676;23.352;2023-06-10T02:49:51;16.75;;;8.20;;
56830;SDS011;42713;42.676;23.352;2023-06-10T02:52:17;13.50;;;6.65;;
56830;SDS011;42713;42.676;23.352;2023-06-10T02:54:42;17.08;;;7.60;;
56830;SDS011;42713;42.676;23.352;2023-06-10T02:57:08;13.57;;;7.20;;
56830;SDS011;42713;42.676;23.352;2023-06-10T02:59:35;11.30;;;7.38;;
56830;SDS011;42713;42.676;23.352;2023-06-10T03:02:00;12.05;;;7.28;;
56830;SDS011;42713;42.676;23.352;2023-06-10T03:04:26;12.95;;;8.02;;
56830;SDS011;42713;42.676;23.352;2023-06-10T03:06:54;13.80;;;7.70;;
56830;SDS011;42713;42.676;23.352;2023-06-10T03:09:19;11.18;;;6.93;;
56830;SDS011;42713;42.676;23.352;2023-06-10T03:11:45;11.38;;;7.40;;
56830;SDS011;42713;42.676;23.352;2023-06-10T03:14:10;10.75;;;6.78;;
56830;SDS011;42713;42.676;23.352;2023-06-10T03:16:36;13.25;;;7.78;;
56830;SDS011;42713;42.676;23.352;2023-06-10T03:19:05;11.93;;;7.75;;
56830;SDS011;42713;42.676;23.352;2023-06-10T03:21:31;13.77;;;7.00;;
56830;SDS011;42713;42.676;23.352;2023-06-10T03:23:57;13.63;;;7.72;;
56830;SDS011;42713;42.676;23.352;2023-06-10T03:26:22;18.00;;;7.18;;
56830;SDS011;42713;42.676;23.352;2023-06-10T03:28:48;11.73;;;7.65;;
56830;SDS011;42713;42.676;23.352;2023-06-10T03:31:13;13.45;;;7.30;;
56830;SDS011;42713;42.676;23.352;2023-06-10T03:33:42;13.93;;;7.85;;
56830;SDS011;42713;42.676;23.352;2023-06-10T03:36:07;12.13;;;7.72;;
56830;SDS011;42713;42.676;23.352;2023-06-10T03:38:33;19.98;;;7.82;;
56830;SDS011;42713;42.676;23.352;2023-06-10T03:40:58;13.48;;;7.97;;
56830;SDS011;42713;42.676;23.352;2023-06-10T03:43:23;19.27;;;8.73;;
56830;SDS011;42713;42.676;23.352;2023-06-10T03:45:49;15.43;;;8.95;;
56830;SDS011;42713;42.676;23.352;2023-06-10T03:48:14;12.77;;;7.93;;
56830;SDS011;42713;42.676;23.352;2023-06-10T03:50:40;16.88;;;8.50;;
56830;SDS011;42713;42.676;23.352;2023-06-10T03:53:05;12.98;;;7.15;;
56830;SDS011;42713;42.676;23.352;2023-06-10T03:55:31;13.30;;;7.22;;
56830;SDS011;42713;42.676;23.352;2023-06-10T03:57:57;13.25;;;6.97;;
56830;SDS011;42713;42.676;23.352;2023-06-10T04:00:23;14.00;;;7.35;;
56830;SDS011;42713;42.676;23.352;2023-06-10T04:02:48;15.98;;;7.22;;
56830;SDS011;42713;42.676;23.352;2023-06-10T04:05:17;17.08;;;7.15;;
56830;SDS011;42713;42.676;23.352;2023-06-10T04:07:44;14.75;;;7.60;;
56830;SDS011;42713;42.676;23.352;2023-06-10T04:10:12;14.63;;;7.65;;
56830;SDS011;42713;42.676;23.352;2023-06-10T04:12:38;11.32;;;7.22;;
56830;SDS011;42713;42.676;23.352;2023-06-10T04:15:04;13.82;;;7.22;;
56830;SDS011;42713;42.676;23.352;2023-06-10T04:17:30;12.52;;;6.80;;
56830;SDS011;42713;42.676;23.352;2023-06-10T04:19:55;12.82;;;5.72;;
56830;SDS011;42713;42.676;23.352;2023-06-10T04:22:21;9.85;;;6.05;;
56830;SDS011;42713;42.676;23.352;2023-06-10T04:24:47;10.23;;;5.95;;
56830;SDS011;42713;42.676;23.352;2023-06-10T04:27:13;14.15;;;5.35;;
56830;SDS011;42713;42.676;23.352;2023-06-10T04:29:39;10.68;;;5.75;;
56830;SDS011;42713;42.676;23.352;2023-06-10T04:32:04;11.55;;;5.63;;
56830;SDS011;42713;42.676;23.352;2023-06-10T04:34:32;14.07;;;5.45;;
56830;SDS011;42713;42.676;23.352;2023-06-10T04:36:58;14.38;;;5.40;;
56830;SDS011;42713;42.676;23.352;2023-06-10T04:39:24;11.45;;;6.35;;
56830;SDS011;42713;42.676;23.352;2023-06-10T04:41:49;11.77;;;5.75;;
56830;SDS011;42713;42.676;23.352;2023-06-10T04:44:15;10.63;;;6.13;;
56830;SDS011;42713;42.676;23.352;2023-06-10T04:46:40;14.02;;;6.13;;
56830;SDS011;42713;42.676;23.352;2023-06-10T04:49:06;11.38;;;6.30;;
56830;SDS011;42713;42.676;23.352;2023-06-10T04:51:31;15.82;;;8.20;;
56830;SDS011;42713;42.676;23.352;2023-06-10T04:53:57;12.57;;;7.22;;
56830;SDS011;42713;42.676;23.352;2023-06-10T04:56:23;12.02;;;6.88;;
56830;SDS011;42713;42.676;23.352;2023-06-10T04:58:49;10.05;;;5.97;;
56830;SDS011;42713;42.676;23.352;2023-06-10T05:01:14;11.93;;;6.63;;
56830;SDS011;42713;42.676;23.352;2023-06-10T05:03:40;13.25;;;5.97;;
56830;SDS011;42713;42.676;23.352;2023-06-10T05:06:05;13.63;;;6.28;;
56830;SDS011;42713;42.676;23.352;2023-06-10T05:08:31;10.20;;;6.28;;
56830;SDS011;42713;42.676;23.352;2023-06-10T05:10:56;15.50;;;9.70;;
56830;SDS011;42713;42.676;23.352;2023-06-10T05:13:23;16.20;;;8.65;;
56830;SDS011;42713;42.676;23.352;2023-06-10T05:15:48;16.77;;;10.15;;
56830;SDS011;42713;42.676;23.352;2023-06-10T05:18:14;14.52;;;8.95;;
56830;SDS011;42713;42.676;23.352;2023-06-10T05:20:39;12.32;;;6.90;;
56830;SDS011;42713;42.676;23.352;2023-06-10T05:23:05;13.68;;;6.80;;
56830;SDS011;42713;42.676;23.352;2023-06-10T05:25:32;13.20;;;7.43;;
56830;SDS011;42713;42.676;23.352;2023-06-10T05:27:58;11.02;;;7.35;;
56830;SDS011;42713;42.676;23.352;2023-06-10T05:30:24;15.27;;;8.43;;
56830;SDS011;42713;42.676;23.352;2023-06-10T05:32:51;13.43;;;7.72;;
56830;SDS011;42713;42.676;23.352;2023-06-10T05:35:18;15.68;;;8.90;;
56830;SDS011;42713;42.676;23.352;2023-06-10T05:37:43;18.80;;;10.25;;
56830;SDS011;42713;42.676;23.352;2023-06-10T05:40:09;14.07;;;10.20;;
56830;SDS011;42713;42.676;23.352;2023-06-10T05:42:35;15.25;;;10.02;;
56830;SDS011;42713;42.676;23.352;2023-06-10T05:45:01;15.98;;;10.77;;
56830;SDS011;42713;42.676;23.352;2023-06-10T05:47:27;16.45;;;11.20;;
56830;SDS011;42713;42.676;23.352;2023-06-10T05:49:52;16.55;;;10.35;;
56830;SDS011;42713;42.676;23.352;2023-06-10T05:52:18;15.18;;;10.10;;
56830;SDS011;42713;42.676;23.352;2023-06-10T05:54:44;15.02;;;9.02;;
56830;SDS011;42713;42.676;23.352;2023-06-10T05:57:09;13.75;;;7.63;;
56830;SDS011;42713;42.676;23.352;2023-06-10T05:59:35;15.82;;;8.32;;
56830;SDS011;42713;42.676;23.352;2023-06-10T06:02:01;15.23;;;9.13;;
56830;SDS011;42713;42.676;23.352;2023-06-10T06:04:26;13.07;;;8.07;;
56830;SDS011;42713;42.676;23.352;2023-06-10T06:06:52;16.30;;;7.97;;
56830;SDS011;42713;42.676;23.352;2023-06-10T06:09:18;15.25;;;7.95;;
56830;SDS011;42713;42.676;23.352;2023-06-10T06:11:43;12.48;;;7.07;;
56830;SDS011;42713;42.676;23.352;2023-06-10T06:14:09;13.75;;;6.50;;
56830;SDS011;42713;42.676;23.352;2023-06-10T06:16:34;11.02;;;6.45;;
56830;SDS011;42713;42.676;23.352;2023-06-10T06:19:00;12.52;;;6.35;;
56830;SDS011;42713;42.676;23.352;2023-06-10T06:21:25;13.40;;;7.13;;
56830;SDS011;42713;42.676;23.352;2023-06-10T06:23:51;14.48;;;6.22;;
56830;SDS011;42713;42.676;23.352;2023-06-10T06:26:16;14.00;;;6.93;;
56830;SDS011;42713;42.676;23.352;2023-06-10T06:28:42;15.75;;;7.00;;
56830;SDS011;42713;42.676;23.352;2023-06-10T06:31:07;14.90;;;6.75;;
56830;SDS011;42713;42.676;23.352;2023-06-10T06:33:33;12.13;;;6.53;;
56830;SDS011;42713;42.676;23.352;2023-06-10T06:35:58;10.68;;;6.30;;
56830;SDS011;42713;42.676;23.352;2023-06-10T06:38:25;13.73;;;6.03;;
56830;SDS011;42713;42.676;23.352;2023-06-10T06:40:51;15.20;;;6.07;;
56830;SDS011;42713;42.676;23.352;2023-06-10T06:43:16;11.75;;;6.43;;
56830;SDS011;42713;42.676;23.352;2023-06-10T06:45:43;13.52;;;5.85;;
56830;SDS011;42713;42.676;23.352;2023-06-10T06:48:10;13.93;;;6.38;;
56830;SDS011;42713;42.676;23.352;2023-06-10T06:50:36;12.00;;;7.13;;
56830;SDS011;42713;42.676;23.352;2023-06-10T06:53:02;12.45;;;6.93;;
56830;SDS011;42713;42.676;23.352;2023-06-10T06:55:28;14.27;;;7.07;;
56830;SDS011;42713;42.676;23.352;2023-06-10T06:57:53;12.55;;;6.78;;
56830;SDS011;42713;42.676;23.352;2023-06-10T07:00:19;14.75;;;6.93;;
56830;SDS011;42713;42.676;23.352;2023-06-10T07:02:45;13.88;;;6.40;;
56830;SDS011;42713;42.676;23.352;2023-06-10T07:05:10;14.00;;;5.75;;
56830;SDS011;42713;42.676;23.352;2023-06-10T07:07:36;12.00;;;4.93;;
56830;SDS011;42713;42.676;23.352;2023-06-10T07:10:01;11.00;;;5.68;;
56830;SDS011;42713;42.676;23.352;2023-06-10T07:12:27;15.23;;;5.68;;
56830;SDS011;42713;42.676;23.352;2023-06-10T07:14:52;11.63;;;5.15;;
56830;SDS011;42713;42.676;23.352;2023-06-10T07:17:18;11.23;;;4.60;;
56830;SDS011;42713;42.676;23.352;2023-06-10T07:19:44;9.02;;;4.80;;
56830;SDS011;42713;42.676;23.352;2023-06-10T07:22:10;10.05;;;4.80;;
56830;SDS011;42713;42.676;23.352;2023-06-10T07:24:35;10.10;;;4.90;;
56830;SDS011;42713;42.676;23.352;2023-06-10T07:27:01;14.80;;;5.47;;
56830;SDS011;42713;42.676;23.352;2023-06-10T07:29:26;12.02;;;4.63;;
56830;SDS011;42713;42.676;23.352;2023-06-10T07:31:52;11.63;;;4.72;;
56830;SDS011;42713;42.676;23.352;2023-06-10T07:34:18;12.75;;;4.82;;
56830;SDS011;42713;42.676;23.352;2023-06-10T07:36:44;10.80;;;5.05;;
56830;SDS011;42713;42.676;23.352;2023-06-10T07:39:10;11.20;;;4.60;;
56830;SDS011;42713;42.676;23.352;2023-06-10T07:41:36;11.65;;;4.72;;
56830;SDS011;42713;42.676;23.352;2023-06-10T07:44:02;9.77;;;5.20;;
56830;SDS011;42713;42.676;23.352;2023-06-10T07:46:28;12.73;;;5.35;;
56830;SDS011;42713;42.676;23.352;2023-06-10T07:48:53;11.80;;;5.07;;
56830;SDS011;42713;42.676;23.352;2023-06-10T07:51:19;9.93;;;4.70;;
56830;SDS011;42713;42.676;23.352;2023-06-10T07:53:45;10.85;;;4.72;;
56830;SDS011;42713;42.676;23.352;2023-06-10T07:56:11;9.20;;;4.07;;
56830;SDS011;42713;42.676;23.352;2023-06-10T07:58:36;13.00;;;4.55;;
56830;SDS011;42713;42.676;23.352;2023-06-10T08:01:02;10.90;;;3.83;;
56830;SDS011;42713;42.676;23.352;2023-06-10T08:03:28;9.80;;;4.00;;
56830;SDS011;42713;42.676;23.352;2023-06-10T08:05:53;7.70;;;3.60;;
56830;SDS011;42713;42.676;23.352;2023-06-10T08:08:18;12.23;;;3.63;;
56830;SDS011;42713;42.676;23.352;2023-06-10T08:10:44;9.80;;;3.70;;
56830;SDS011;42713;42.676;23.352;2023-06-10T08:13:11;7.57;;;3.00;;
56830;SDS011;42713;42.676;23.352;2023-06-10T08:15:36;6.53;;;2.72;;
56830;SDS011;42713;42.676;23.352;2023-06-10T08:18:02;9.25;;;3.10;;
56830;SDS011;42713;42.676;23.352;2023-06-10T08:20:28;11.38;;;3.22;;
56830;SDS011;42713;42.676;23.352;2023-06-10T08:22:53;10.93;;;3.22;;
56830;SDS011;42713;42.676;23.352;2023-06-10T08:25:19;10.52;;;3.38;;
56830;SDS011;42713;42.676;23.352;2023-06-10T08:27:47;13.27;;;3.55;;
56830;SDS011;42713;42.676;23.352;2023-06-10T08:30:12;10.43;;;3.88;;
56830;SDS011;42713;42.676;23.352;2023-06-10T08:32:38;8.07;;;3.50;;
56830;SDS011;42713;42.676;23.352;2023-06-10T08:35:04;10.40;;;3.45;;
56830;SDS011;42713;42.676;23.352;2023-06-10T08:37:29;10.27;;;3.80;;
56830;SDS011;42713;42.676;23.352;2023-06-10T08:39:55;8.25;;;3.28;;
56830;SDS011;42713;42.676;23.352;2023-06-10T08:45:00;10.35;;;3.30;;
56830;SDS011;42713;42.676;23.352;2023-06-10T08:47:29;7.97;;;3.50;;
56830;SDS011;42713;42.676;23.352;2023-06-10T08:50:01;10.55;;;3.42;;
56830;SDS011;42713;42.676;23.352;2023-06-10T08:52:29;7.22;;;3.20;;
56830;SDS011;42713;42.676;23.352;2023-06-10T08:55:08;10.48;;;3.10;;
56830;SDS011;42713;42.676;23.352;2023-06-10T08:57:37;6.10;;;2.85;;
56830;SDS011;42713;42.676;23.352;2023-06-10T09:00:03;6.82;;;2.83;;
56830;SDS011;42713;42.676;23.352;2023-06-10T09:02:30;9.70;;;3.00;;
56830;SDS011;42713;42.676;23.352;2023-06-10T09:05:00;9.23;;;2.90;;
56830;SDS011;42713;42.676;23.352;2023-06-10T09:07:26;8.13;;;2.92;;
56830;SDS011;42713;42.676;23.352;2023-06-10T09:09:52;6.50;;;2.45;;
56830;SDS011;42713;42.676;23.352;2023-06-10T09:12:19;6.38;;;2.55;;
56830;SDS011;42713;42.676;23.352;2023-06-10T09:14:45;8.00;;;2.85;;
56830;SDS011;42713;42.676;23.352;2023-06-10T09:17:10;6.72;;;2.85;;
56830;SDS011;42713;42.676;23.352;2023-06-10T09:19:36;6.70;;;2.78;;
56830;SDS011;42713;42.676;23.352;2023-06-10T09:22:04;5.85;;;2.58;;
56830;SDS011;42713;42.676;23.352;2023-06-10T09:24:30;6.38;;;2.50;;
56830;SDS011;42713;42.676;23.352;2023-06-10T09:27:04;6.05;;;2.42;;
56830;SDS011;42713;42.676;23.352;2023-06-10T09:29:32;7.63;;;2.55;;
56830;SDS011;42713;42.676;23.352;2023-06-10T09:32:10;7.32;;;2.70;;
56830;SDS011;42713;42.676;23.352;2023-06-10T09:34:36;7.03;;;2.90;;
56830;SDS011;42713;42.676;23.352;2023-06-10T09:37:01;6.60;;;2.58;;
56830;SDS011;42713;42.676;23.352;2023-06-10T09:39:27;11.52;;;3.80;;
56830;SDS011;42713;42.676;23.352;2023-06-10T09:41:53;7.85;;;2.78;;
56830;SDS011;42713;42.676;23.352;2023-06-10T09:44:19;7.78;;;2.50;;
56830;SDS011;42713;42.676;23.352;2023-06-10T09:46:46;7.35;;;2.28;;
56830;SDS011;42713;42.676;23.352;2023-06-10T09:49:15;7.00;;;2.60;;
56830;SDS011;42713;42.676;23.352;2023-06-10T09:51:50;8.45;;;2.90;;
56830;SDS011;42713;42.676;23.352;2023-06-10T09:54:17;6.10;;;2.70;;
56830;SDS011;42713;42.676;23.352;2023-06-10T09:56:43;7.90;;;3.20;;
56830;SDS011;42713;42.676;23.352;2023-06-10T09:59:12;10.05;;;3.05;;
56830;SDS011;42713;42.676;23.352;2023-06-10T10:01:38;9.38;;;3.20;;
56830;SDS011;42713;42.676;23.352;2023-06-10T10:04:04;7.50;;;2.90;;
56830;SDS011;42713;42.676;23.352;2023-06-10T10:06:29;7.50;;;2.85;;
56830;SDS011;42713;42.676;23.352;2023-06-10T10:08:55;6.40;;;2.72;;
56830;SDS011;42713;42.676;23.352;2023-06-10T10:11:21;6.40;;;2.58;;
56830;SDS011;42713;42.676;23.352;2023-06-10T10:13:48;7.00;;;2.40;;
56830;SDS011;42713;42.676;23.352;2023-06-10T10:16:15;6.93;;;2.58;;
56830;SDS011;42713;42.676;23.352;2023-06-10T10:18:47;8.10;;;2.65;;
56830;SDS011;42713;42.676;23.352;2023-06-10T10:21:18;5.55;;;2.42;;
56830;SDS011;42713;42.676;23.352;2023-06-10T10:26:39;9.68;;;2.85;;
56830;SDS011;42713;42.676;23.352;2023-06-10T10:32:01;6.45;;;2.65;;
56830;SDS011;42713;42.676;23.352;2023-06-10T10:37:26;6.22;;;2.85;;
56830;SDS011;42713;42.676;23.352;2023-06-10T10:39:51;7.97;;;2.75;;
56830;SDS011;42713;42.676;23.352;2023-06-10T10:42:18;9.95;;;2.58;;
56830;SDS011;42713;42.676;23.352;2023-06-10T10:44:46;5.65;;;2.47;;
56830;SDS011;42713;42.676;23.352;2023-06-10T10:47:14;9.35;;;3.20;;
56830;SDS011;42713;42.676;23.352;2023-06-10T10:49:42;6.93;;;3.00;;
56830;SDS011;42713;42.676;23.352;2023-06-10T10:52:11;8.65;;;3.03;;
56830;SDS011;42713;42.676;23.352;2023-06-10T10:54:37;10.02;;;3.08;;
56830;SDS011;42713;42.676;23.352;2023-06-10T10:57:10;6.68;;;2.90;;
56830;SDS011;42713;42.676;23.352;2023-06-10T11:05:15;8.25;;;3.08;;
56830;SDS011;42713;42.676;23.352;2023-06-10T11:07:41;8.85;;;3.13;;
56830;SDS011;42713;42.676;23.352;2023-06-10T11:10:19;7.10;;;2.80;;
56830;SDS011;42713;42.676;23.352;2023-06-10T11:12:54;11.27;;;3.25;;
56830;SDS011;42713;42.676;23.352;2023-06-10T11:15:23;6.20;;;2.58;;
56830;SDS011;42713;42.676;23.352;2023-06-10T11:18:07;6.68;;;3.08;;
56830;SDS011;42713;42.676;23.352;2023-06-10T11:26:08;7.82;;;3.42;;
56830;SDS011;42713;42.676;23.352;2023-06-10T11:28:37;7.18;;;3.03;;
56830;SDS011;42713;42.676;23.352;2023-06-10T11:31:03;7.40;;;3.30;;
56830;SDS011;42713;42.676;23.352;2023-06-10T11:33:29;9.02;;;3.47;;
56830;SDS011;42713;42.676;23.352;2023-06-10T11:35:56;10.15;;;3.35;;
56830;SDS011;42713;42.676;23.352;2023-06-10T11:38:21;9.60;;;3.10;;
56830;SDS011;42713;42.676;23.352;2023-06-10T11:40:50;8.70;;;3.03;;
56830;SDS011;42713;42.676;23.352;2023-06-10T11:43:16;9.55;;;3.38;;
56830;SDS011;42713;42.676;23.352;2023-06-10T11:45:43;8.65;;;3.33;;
56830;SDS011;42713;42.676;23.352;2023-06-10T11:48:09;9.30;;;3.10;;
56830;SDS011;42713;42.676;23.352;2023-06-10T11:50:35;7.68;;;3.28;;
56830;SDS011;42713;42.676;23.352;2023-06-10T11:53:01;7.93;;;3.28;;
56830;SDS011;42713;42.676;23.352;2023-06-10T11:55:43;9.40;;;3.30;;
56830;SDS011;42713;42.676;23.352;2023-06-10T11:58:21;9.45;;;2.83;;
56830;SDS011;42713;42.676;23.352;2023-06-10T12:00:56;6.90;;;2.60;;
56830;SDS011;42713;42.676;23.352;2023-06-10T12:03:23;7.03;;;2.70;;
56830;SDS011;42713;42.676;23.352;2023-06-10T12:06:02;7.45;;;2.70;;
56830;SDS011;42713;42.676;23.352;2023-06-10T12:10:55;6.22;;;2.70;;
56830;SDS011;42713;42.676;23.352;2023-06-10T12:13:21;5.93;;;2.50;;
56830;SDS011;42713;42.676;23.352;2023-06-10T12:15:48;8.48;;;2.67;;
56830;SDS011;42713;42.676;23.352;2023-06-10T12:20:46;10.77;;;3.08;;
56830;SDS011;42713;42.676;23.352;2023-06-10T12:23:13;8.35;;;2.67;;
56830;SDS011;42713;42.676;23.352;2023-06-10T12:25:47;11.93;;;2.72;;
56830;SDS011;42713;42.676;23.352;2023-06-10T12:28:16;7.32;;;2.60;;
56830;SDS011;42713;42.676;23.352;2023-06-10T12:30:42;8.27;;;2.70;;
56830;SDS011;42713;42.676;23.352;2023-06-10T12:33:15;7.97;;;2.58;;
56830;SDS011;42713;42.676;23.352;2023-06-10T12:35:48;8.18;;;2.70;;
56830;SDS011;42713;42.676;23.352;2023-06-10T12:38:24;6.93;;;2.50;;
56830;SDS011;42713;42.676;23.352;2023-06-10T12:40:54;5.65;;;2.58;;
56830;SDS011;42713;42.676;23.352;2023-06-10T12:43:25;7.55;;;3.05;;
56830;SDS011;42713;42.676;23.352;2023-06-10T12:45:51;7.32;;;2.75;;
56830;SDS011;42713;42.676;23.352;2023-06-10T12:48:21;9.75;;;3.10;;
56830;SDS011;42713;42.676;23.352;2023-06-10T12:50:55;7.07;;;2.60;;
56830;SDS011;42713;42.676;23.352;2023-06-10T12:53:22;8.40;;;2.80;;
56830;SDS011;42713;42.676;23.352;2023-06-10T12:55:49;5.75;;;2.38;;
56830;SDS011;42713;42.676;23.352;2023-06-10T12:58:15;6.53;;;2.63;;
56830;SDS011;42713;42.676;23.352;2023-06-10T13:00:40;6.40;;;2.65;;
56830;SDS011;42713;42.676;23.352;2023-06-10T13:03:07;6.82;;;2.80;;
56830;SDS011;42713;42.676;23.352;2023-06-10T13:05:37;9.80;;;3.20;;
56830;SDS011;42713;42.676;23.352;2023-06-10T13:08:07;6.70;;;2.72;;
56830;SDS011;42713;42.676;23.352;2023-06-10T13:10:35;7.00;;;2.58;;
56830;SDS011;42713;42.676;23.352;2023-06-10T13:13:01;6.30;;;2.63;;
56830;SDS011;42713;42.676;23.352;2023-06-10T13:15:30;6.05;;;2.70;;
56830;SDS011;42713;42.676;23.352;2023-06-10T13:17:57;6.00;;;2.67;;
56830;SDS011;42713;42.676;23.352;2023-06-10T13:20:23;6.25;;;2.60;;
56830;SDS011;42713;42.676;23.352;2023-06-10T13:22:48;12.27;;;2.75;;
56830;SDS011;42713;42.676;23.352;2023-06-10T13:25:14;5.65;;;2.63;;
56830;SDS011;42713;42.676;23.352;2023-06-10T13:27:40;7.35;;;3.03;;
56830;SDS011;42713;42.676;23.352;2023-06-10T13:30:07;10.10;;;3.30;;
56830;SDS011;42713;42.676;23.352;2023-06-10T13:32:35;9.05;;;3.22;;
56830;SDS011;42713;42.676;23.352;2023-06-10T13:35:01;7.68;;;3.60;;
56830;SDS011;42713;42.676;23.352;2023-06-10T13:37:28;9.82;;;4.07;;
56830;SDS011;42713;42.676;23.352;2023-06-10T13:39:53;8.77;;;3.70;;
56830;SDS011;42713;42.676;23.352;2023-06-10T13:42:21;9.30;;;3.72;;
56830;SDS011;42713;42.676;23.352;2023-06-10T13:44:47;9.40;;;3.60;;
56830;SDS011;42713;42.676;23.352;2023-06-10T13:47:13;8.30;;;3.33;;
56830;SDS011;42713;42.676;23.352;2023-06-10T13:49:40;8.05;;;3.50;;
56830;SDS011;42713;42.676;23.352;2023-06-10T13:52:06;11.27;;;3.70;;
56830;SDS011;42713;42.676;23.352;2023-06-10T13:54:33;9.65;;;3.60;;
56830;SDS011;42713;42.676;23.352;2023-06-10T13:57:02;8.43;;;4.10;;
56830;SDS011;42713;42.676;23.352;2023-06-10T13:59:28;8.00;;;3.28;;
56830;SDS011;42713;42.676;23.352;2023-06-10T14:01:54;12.38;;;3.80;;
56830;SDS011;42713;42.676;23.352;2023-06-10T14:04:19;12.18;;;3.90;;
56830;SDS011;42713;42.676;23.352;2023-06-10T14:06:45;8.68;;;3.78;;
56830;SDS011;42713;42.676;23.352;2023-06-10T14:09:11;8.50;;;3.35;;
56830;SDS011;42713;42.676;23.352;2023-06-10T14:11:38;8.23;;;3.55;;
56830;SDS011;42713;42.676;23.352;2023-06-10T14:14:03;9.75;;;3.65;;
56830;SDS011;42713;42.676;23.352;2023-06-10T14:16:29;10.48;;;3.55;;
56830;SDS011;42713;42.676;23.352;2023-06-10T14:18:54;9.65;;;3.78;;
56830;SDS011;42713;42.676;23.352;2023-06-10T14:21:20;7.97;;;3.88;;
56830;SDS011;42713;42.676;23.352;2023-06-10T14:23:45;8.52;;;3.45;;
56830;SDS011;42713;42.676;23.352;2023-06-10T14:26:11;10.05;;;3.67;;
56830;SDS011;42713;42.676;23.352;2023-06-10T14:28:38;8.05;;;3.58;;
56830;SDS011;42713;42.676;23.352;2023-06-10T14:31:04;6.70;;;3.08;;
56830;SDS011;42713;42.676;23.352;2023-06-10T14:33:29;9.13;;;3.22;;
56830;SDS011;42713;42.676;23.352;2023-06-10T14:35:56;10.73;;;3.75;;
56830;SDS011;42713;42.676;23.352;2023-06-10T14:38:22;7.55;;;3.00;;
56830;SDS011;42713;42.676;23.352;2023-06-10T14:40:47;10.07;;;3.28;;
56830;SDS011;42713;42.676;23.352;2023-06-10T14:43:13;9.98;;;3.22;;
56830;SDS011;42713;42.676;23.352;2023-06-10T14:45:39;7.88;;;3.50;;
56830;SDS011;42713;42.676;23.352;2023-06-10T14:48:05;12.27;;;3.55;;
56830;SDS011;42713;42.676;23.352;2023-06-10T14:50:31;7.95;;;3.28;;
56830;SDS011;42713;42.676;23.352;2023-06-10T14:52:57;7.32;;;3.35;;
56830;SDS011;42713;42.676;23.352;2023-06-10T14:55:23;8.00;;;3.50;;
56830;SDS011;42713;42.676;23.352;2023-06-10T14:57:49;6.07;;;2.90;;
56830;SDS011;42713;42.676;23.352;2023-06-10T15:00:15;7.97;;;2.78;;